Aviation Digital Data Service (ADDS)

Output produced by METARs form (1735 UTC 16 June 2019)
found at http://www.aviationweather.gov/metar/data/
 
OLBA 161700Z 26004KT 7000 NSC 26/21 Q1009 NOSIG
TAF OLBA 161600Z 1618/1724 VRB03KT 8000 SCT027 
     TEMPO 1618/1724 5000 BR 
     BECMG 1709/1712 23010G20KT BKN022 
     BECMG 1721/1724 VRB03KT